KFFL/FFL METAR and TAF weather

Enter ICAO airport designator
Station Type Date Time Source
KFFL METAR 2019/06/19 01:55 UTC NOAA

KFFL 190155Z AUTO 06003KT 10SM CLR 23/17 A2985 RMK AO2 PWINO


Station Type Date Time Source
KFFL Decoded METAR 2019/06/19 01:55 UTC NOAA

Fair Field, IA, United States (KFFL) 41-03N 091-59W
Jun 18, 2019 - 09:55 PM EDT / 2019.06.19 0155 UTC
Wind: from the ENE (060 degrees) at 3 MPH (3 KT):0
Visibility: 10 mile(s):0
Sky conditions: clear
Temperature: 73 F (23 C)
Dew Point: 62 F (17 C)
Relative Humidity: 68%
Pressure (altimeter): 29.85 in. Hg (1010 hPa)
ob: KFFL 190155Z AUTO 06003KT 10SM CLR 23/17 A2985 RMK AO2 PWINO
cycle: 2

Station Type Date Time Source
KFFL TAF UTC NOAA

Error!

Example: see airport list